sensor_id;sensor_type;location;lat;lon;timestamp;P1;durP1;ratioP1;P2;durP2;ratioP2
58768;SDS011;44536;47.474;19.056;2023-04-03T00:03:01;8.80;;;4.68;;
58768;SDS011;44536;47.474;19.056;2023-04-03T00:06:03;9.80;;;4.85;;
58768;SDS011;44536;47.474;19.056;2023-04-03T00:09:10;9.45;;;4.53;;
58768;SDS011;44536;47.474;19.056;2023-04-03T00:12:13;9.95;;;4.72;;
58768;SDS011;44536;47.474;19.056;2023-04-03T00:15:15;10.02;;;4.93;;
58768;SDS011;44536;47.474;19.056;2023-04-03T00:18:20;9.48;;;4.37;;
58768;SDS011;44536;47.474;19.056;2023-04-03T00:21:23;8.45;;;4.53;;
58768;SDS011;44536;47.474;19.056;2023-04-03T00:24:26;10.43;;;5.23;;
58768;SDS011;44536;47.474;19.056;2023-04-03T00:27:28;9.77;;;4.55;;
58768;SDS011;44536;47.474;19.056;2023-04-03T00:30:31;12.60;;;4.57;;
58768;SDS011;44536;47.474;19.056;2023-04-03T00:33:34;10.13;;;5.57;;
58768;SDS011;44536;47.474;19.056;2023-04-03T00:36:37;10.75;;;4.78;;
58768;SDS011;44536;47.474;19.056;2023-04-03T00:39:39;9.10;;;4.70;;
58768;SDS011;44536;47.474;19.056;2023-04-03T00:42:42;9.20;;;4.78;;
58768;SDS011;44536;47.474;19.056;2023-04-03T00:48:52;8.70;;;3.85;;
58768;SDS011;44536;47.474;19.056;2023-04-03T00:51:54;9.40;;;4.62;;
58768;SDS011;44536;47.474;19.056;2023-04-03T00:55:00;8.32;;;4.32;;
58768;SDS011;44536;47.474;19.056;2023-04-03T00:58:06;8.02;;;4.10;;
58768;SDS011;44536;47.474;19.056;2023-04-03T01:04:28;10.32;;;4.68;;
58768;SDS011;44536;47.474;19.056;2023-04-03T01:07:37;9.65;;;4.55;;
58768;SDS011;44536;47.474;19.056;2023-04-03T01:10:40;8.57;;;4.07;;
58768;SDS011;44536;47.474;19.056;2023-04-03T01:13:43;9.23;;;4.90;;
58768;SDS011;44536;47.474;19.056;2023-04-03T01:16:54;8.63;;;4.30;;
58768;SDS011;44536;47.474;19.056;2023-04-03T01:20:46;10.48;;;4.70;;
58768;SDS011;44536;47.474;19.056;2023-04-03T01:23:40;8.57;;;4.35;;
58768;SDS011;44536;47.474;19.056;2023-04-03T01:26:50;7.23;;;3.80;;
58768;SDS011;44536;47.474;19.056;2023-04-03T01:29:52;7.80;;;4.35;;
58768;SDS011;44536;47.474;19.056;2023-04-03T01:32:55;8.33;;;3.67;;
58768;SDS011;44536;47.474;19.056;2023-04-03T01:35:59;7.85;;;4.03;;
58768;SDS011;44536;47.474;19.056;2023-04-03T01:39:01;8.73;;;4.87;;
58768;SDS011;44536;47.474;19.056;2023-04-03T01:42:04;8.10;;;4.20;;
58768;SDS011;44536;47.474;19.056;2023-04-03T01:48:10;8.98;;;3.25;;
58768;SDS011;44536;47.474;19.056;2023-04-03T01:51:12;10.13;;;3.78;;
58768;SDS011;44536;47.474;19.056;2023-04-03T01:54:15;7.82;;;4.30;;
58768;SDS011;44536;47.474;19.056;2023-04-03T01:57:18;7.35;;;3.35;;
58768;SDS011;44536;47.474;19.056;2023-04-03T02:00:20;9.77;;;4.03;;
58768;SDS011;44536;47.474;19.056;2023-04-03T02:06:26;8.63;;;3.90;;
58768;SDS011;44536;47.474;19.056;2023-04-03T02:09:29;6.82;;;3.17;;
58768;SDS011;44536;47.474;19.056;2023-04-03T02:12:31;9.00;;;4.20;;
58768;SDS011;44536;47.474;19.056;2023-04-03T02:15:37;7.70;;;3.50;;
58768;SDS011;44536;47.474;19.056;2023-04-03T02:18:40;8.05;;;3.42;;
58768;SDS011;44536;47.474;19.056;2023-04-03T02:21:42;5.62;;;2.40;;
58768;SDS011;44536;47.474;19.056;2023-04-03T02:24:45;7.43;;;3.10;;
58768;SDS011;44536;47.474;19.056;2023-04-03T02:27:48;7.00;;;3.42;;
58768;SDS011;44536;47.474;19.056;2023-04-03T02:30:50;6.60;;;3.37;;
58768;SDS011;44536;47.474;19.056;2023-04-03T02:33:53;6.85;;;3.35;;
58768;SDS011;44536;47.474;19.056;2023-04-03T02:36:55;9.23;;;3.53;;
58768;SDS011;44536;47.474;19.056;2023-04-03T02:39:59;6.93;;;2.60;;
58768;SDS011;44536;47.474;19.056;2023-04-03T02:43:02;6.78;;;3.22;;
58768;SDS011;44536;47.474;19.056;2023-04-03T02:46:05;7.25;;;3.10;;
58768;SDS011;44536;47.474;19.056;2023-04-03T02:49:08;6.82;;;2.92;;
58768;SDS011;44536;47.474;19.056;2023-04-03T02:52:10;6.72;;;3.78;;
58768;SDS011;44536;47.474;19.056;2023-04-03T02:55:14;8.32;;;4.15;;
58768;SDS011;44536;47.474;19.056;2023-04-03T02:58:18;6.00;;;2.67;;
58768;SDS011;44536;47.474;19.056;2023-04-03T03:01:21;6.25;;;3.17;;
58768;SDS011;44536;47.474;19.056;2023-04-03T03:04:23;7.85;;;3.15;;
58768;SDS011;44536;47.474;19.056;2023-04-03T03:07:26;7.12;;;3.97;;
58768;SDS011;44536;47.474;19.056;2023-04-03T03:10:28;6.78;;;2.95;;
58768;SDS011;44536;47.474;19.056;2023-04-03T03:13:31;8.60;;;3.45;;
58768;SDS011;44536;47.474;19.056;2023-04-03T03:16:33;7.45;;;3.58;;
58768;SDS011;44536;47.474;19.056;2023-04-03T03:19:35;6.60;;;3.22;;
58768;SDS011;44536;47.474;19.056;2023-04-03T03:22:38;6.85;;;3.35;;
58768;SDS011;44536;47.474;19.056;2023-04-03T03:25:40;7.00;;;3.37;;
58768;SDS011;44536;47.474;19.056;2023-04-03T03:28:43;7.70;;;3.50;;
58768;SDS011;44536;47.474;19.056;2023-04-03T03:31:46;6.30;;;3.15;;
58768;SDS011;44536;47.474;19.056;2023-04-03T03:34:48;8.05;;;3.30;;
58768;SDS011;44536;47.474;19.056;2023-04-03T03:37:51;6.50;;;3.12;;
58768;SDS011;44536;47.474;19.056;2023-04-03T03:40:53;7.12;;;3.33;;
58768;SDS011;44536;47.474;19.056;2023-04-03T03:43:56;6.82;;;2.72;;
58768;SDS011;44536;47.474;19.056;2023-04-03T03:47:01;9.60;;;3.85;;
58768;SDS011;44536;47.474;19.056;2023-04-03T03:53:07;6.07;;;2.67;;
58768;SDS011;44536;47.474;19.056;2023-04-03T03:56:10;8.13;;;3.70;;
58768;SDS011;44536;47.474;19.056;2023-04-03T03:59:13;9.18;;;3.60;;
58768;SDS011;44536;47.474;19.056;2023-04-03T04:02:16;6.07;;;2.70;;
58768;SDS011;44536;47.474;19.056;2023-04-03T04:05:19;8.73;;;3.40;;
58768;SDS011;44536;47.474;19.056;2023-04-03T04:08:22;7.78;;;3.67;;
58768;SDS011;44536;47.474;19.056;2023-04-03T04:11:26;9.07;;;3.30;;
58768;SDS011;44536;47.474;19.056;2023-04-03T04:14:32;8.57;;;4.32;;
58768;SDS011;44536;47.474;19.056;2023-04-03T04:17:35;7.12;;;3.15;;
58768;SDS011;44536;47.474;19.056;2023-04-03T04:20:39;6.70;;;3.22;;
58768;SDS011;44536;47.474;19.056;2023-04-03T04:23:42;8.07;;;4.03;;
58768;SDS011;44536;47.474;19.056;2023-04-03T04:26:45;7.22;;;3.55;;
58768;SDS011;44536;47.474;19.056;2023-04-03T04:29:48;7.28;;;3.30;;
58768;SDS011;44536;47.474;19.056;2023-04-03T04:32:51;8.43;;;3.78;;
58768;SDS011;44536;47.474;19.056;2023-04-03T04:35:54;9.50;;;3.83;;
58768;SDS011;44536;47.474;19.056;2023-04-03T04:38:57;8.23;;;3.53;;
58768;SDS011;44536;47.474;19.056;2023-04-03T04:42:01;7.50;;;3.37;;
58768;SDS011;44536;47.474;19.056;2023-04-03T04:45:04;6.82;;;3.42;;
58768;SDS011;44536;47.474;19.056;2023-04-03T04:48:07;7.60;;;3.33;;
58768;SDS011;44536;47.474;19.056;2023-04-03T04:51:10;7.97;;;3.80;;
58768;SDS011;44536;47.474;19.056;2023-04-03T04:54:13;7.07;;;2.83;;
58768;SDS011;44536;47.474;19.056;2023-04-03T04:57:16;6.15;;;3.22;;
58768;SDS011;44536;47.474;19.056;2023-04-03T05:00:20;7.45;;;3.47;;
58768;SDS011;44536;47.474;19.056;2023-04-03T05:03:23;9.05;;;3.65;;
58768;SDS011;44536;47.474;19.056;2023-04-03T05:06:26;8.55;;;3.22;;
58768;SDS011;44536;47.474;19.056;2023-04-03T05:09:28;10.65;;;3.80;;
58768;SDS011;44536;47.474;19.056;2023-04-03T05:12:31;7.85;;;4.68;;
58768;SDS011;44536;47.474;19.056;2023-04-03T05:15:34;7.93;;;3.13;;
58768;SDS011;44536;47.474;19.056;2023-04-03T05:18:38;9.20;;;4.28;;
58768;SDS011;44536;47.474;19.056;2023-04-03T05:21:41;7.95;;;4.57;;
58768;SDS011;44536;47.474;19.056;2023-04-03T05:24:44;9.05;;;3.53;;
58768;SDS011;44536;47.474;19.056;2023-04-03T05:27:47;7.10;;;3.22;;
58768;SDS011;44536;47.474;19.056;2023-04-03T05:33:58;7.40;;;3.15;;
58768;SDS011;44536;47.474;19.056;2023-04-03T05:37:02;7.30;;;3.22;;
58768;SDS011;44536;47.474;19.056;2023-04-03T05:40:06;8.40;;;4.15;;
58768;SDS011;44536;47.474;19.056;2023-04-03T05:43:12;8.32;;;4.03;;
58768;SDS011;44536;47.474;19.056;2023-04-03T05:46:17;8.07;;;4.25;;
58768;SDS011;44536;47.474;19.056;2023-04-03T05:49:24;10.70;;;3.70;;
58768;SDS011;44536;47.474;19.056;2023-04-03T05:52:28;7.00;;;3.03;;
58768;SDS011;44536;47.474;19.056;2023-04-03T05:55:35;6.65;;;3.65;;
58768;SDS011;44536;47.474;19.056;2023-04-03T05:58:41;7.40;;;3.67;;
58768;SDS011;44536;47.474;19.056;2023-04-03T06:01:44;8.35;;;3.60;;
58768;SDS011;44536;47.474;19.056;2023-04-03T06:04:47;7.40;;;3.15;;
58768;SDS011;44536;47.474;19.056;2023-04-03T06:07:50;7.12;;;3.10;;
58768;SDS011;44536;47.474;19.056;2023-04-03T06:10:53;8.13;;;3.83;;
58768;SDS011;44536;47.474;19.056;2023-04-03T06:13:56;5.87;;;3.12;;
58768;SDS011;44536;47.474;19.056;2023-04-03T06:16:59;5.70;;;2.70;;
58768;SDS011;44536;47.474;19.056;2023-04-03T06:20:01;6.73;;;3.20;;
58768;SDS011;44536;47.474;19.056;2023-04-03T06:23:06;7.60;;;3.00;;
58768;SDS011;44536;47.474;19.056;2023-04-03T06:29:12;9.00;;;3.35;;
58768;SDS011;44536;47.474;19.056;2023-04-03T06:32:15;6.28;;;2.97;;
58768;SDS011;44536;47.474;19.056;2023-04-03T06:35:17;6.93;;;2.75;;
58768;SDS011;44536;47.474;19.056;2023-04-03T06:38:20;5.97;;;2.72;;
58768;SDS011;44536;47.474;19.056;2023-04-03T06:41:22;7.62;;;3.00;;
58768;SDS011;44536;47.474;19.056;2023-04-03T06:44:24;7.00;;;3.00;;
58768;SDS011;44536;47.474;19.056;2023-04-03T06:47:27;6.95;;;2.90;;
58768;SDS011;44536;47.474;19.056;2023-04-03T06:50:29;6.37;;;2.83;;
58768;SDS011;44536;47.474;19.056;2023-04-03T06:53:32;5.53;;;2.65;;
58768;SDS011;44536;47.474;19.056;2023-04-03T06:56:34;7.80;;;3.15;;
58768;SDS011;44536;47.474;19.056;2023-04-03T06:59:37;5.72;;;2.95;;
58768;SDS011;44536;47.474;19.056;2023-04-03T07:02:40;7.18;;;3.00;;
58768;SDS011;44536;47.474;19.056;2023-04-03T07:05:44;9.30;;;3.45;;
58768;SDS011;44536;47.474;19.056;2023-04-03T07:08:46;7.45;;;3.47;;
58768;SDS011;44536;47.474;19.056;2023-04-03T07:11:51;7.22;;;2.70;;
58768;SDS011;44536;47.474;19.056;2023-04-03T07:14:53;5.85;;;3.10;;
58768;SDS011;44536;47.474;19.056;2023-04-03T07:17:56;6.32;;;2.55;;
58768;SDS011;44536;47.474;19.056;2023-04-03T07:20:58;6.53;;;2.70;;
58768;SDS011;44536;47.474;19.056;2023-04-03T07:24:01;6.97;;;3.30;;
58768;SDS011;44536;47.474;19.056;2023-04-03T07:27:03;4.37;;;1.87;;
58768;SDS011;44536;47.474;19.056;2023-04-03T07:30:06;5.33;;;2.03;;
58768;SDS011;44536;47.474;19.056;2023-04-03T07:33:09;3.85;;;1.35;;
58768;SDS011;44536;47.474;19.056;2023-04-03T07:36:14;4.37;;;1.95;;
58768;SDS011;44536;47.474;19.056;2023-04-03T07:39:18;5.10;;;2.53;;
58768;SDS011;44536;47.474;19.056;2023-04-03T07:42:21;5.35;;;2.62;;
58768;SDS011;44536;47.474;19.056;2023-04-03T07:45:23;6.60;;;2.20;;
58768;SDS011;44536;47.474;19.056;2023-04-03T07:48:26;5.37;;;1.85;;
58768;SDS011;44536;47.474;19.056;2023-04-03T07:51:29;4.72;;;1.80;;
58768;SDS011;44536;47.474;19.056;2023-04-03T07:54:31;5.60;;;2.30;;
58768;SDS011;44536;47.474;19.056;2023-04-03T07:57:34;4.22;;;1.92;;
58768;SDS011;44536;47.474;19.056;2023-04-03T08:00:37;4.18;;;1.70;;
58768;SDS011;44536;47.474;19.056;2023-04-03T08:03:40;6.20;;;2.22;;
58768;SDS011;44536;47.474;19.056;2023-04-03T08:06:43;5.87;;;2.22;;
58768;SDS011;44536;47.474;19.056;2023-04-03T08:09:48;6.03;;;2.35;;
58768;SDS011;44536;47.474;19.056;2023-04-03T08:12:50;4.75;;;1.70;;
58768;SDS011;44536;47.474;19.056;2023-04-03T08:15:53;4.57;;;2.13;;
58768;SDS011;44536;47.474;19.056;2023-04-03T08:18:55;4.25;;;1.75;;
58768;SDS011;44536;47.474;19.056;2023-04-03T08:21:58;5.37;;;2.37;;
58768;SDS011;44536;47.474;19.056;2023-04-03T08:28:04;5.07;;;2.42;;
58768;SDS011;44536;47.474;19.056;2023-04-03T08:31:09;5.53;;;2.10;;
58768;SDS011;44536;47.474;19.056;2023-04-03T08:34:14;5.25;;;2.08;;
58768;SDS011;44536;47.474;19.056;2023-04-03T08:37:16;5.78;;;2.17;;
58768;SDS011;44536;47.474;19.056;2023-04-03T08:40:19;5.53;;;2.05;;
58768;SDS011;44536;47.474;19.056;2023-04-03T08:43:30;5.20;;;2.30;;
58768;SDS011;44536;47.474;19.056;2023-04-03T08:46:38;5.87;;;2.50;;
58768;SDS011;44536;47.474;19.056;2023-04-03T08:49:47;5.97;;;2.17;;
58768;SDS011;44536;47.474;19.056;2023-04-03T08:52:55;6.00;;;2.15;;
58768;SDS011;44536;47.474;19.056;2023-04-03T08:56:05;5.50;;;2.10;;
58768;SDS011;44536;47.474;19.056;2023-04-03T08:59:12;5.85;;;2.12;;
58768;SDS011;44536;47.474;19.056;2023-04-03T09:02:23;5.05;;;2.35;;
58768;SDS011;44536;47.474;19.056;2023-04-03T09:05:36;5.30;;;2.03;;
58768;SDS011;44536;47.474;19.056;2023-04-03T09:12:22;4.55;;;1.73;;
58768;SDS011;44536;47.474;19.056;2023-04-03T09:15:28;4.30;;;2.05;;
58768;SDS011;44536;47.474;19.056;2023-04-03T09:18:41;4.12;;;1.40;;
58768;SDS011;44536;47.474;19.056;2023-04-03T09:21:50;4.22;;;1.50;;
58768;SDS011;44536;47.474;19.056;2023-04-03T09:24:58;3.92;;;1.55;;
58768;SDS011;44536;47.474;19.056;2023-04-03T09:28:04;5.80;;;1.20;;
58768;SDS011;44536;47.474;19.056;2023-04-03T09:31:26;5.65;;;1.50;;
58768;SDS011;44536;47.474;19.056;2023-04-03T09:34:32;4.50;;;3.00;;
58768;SDS011;44536;47.474;19.056;2023-04-03T09:37:42;3.08;;;1.45;;
58768;SDS011;44536;47.474;19.056;2023-04-03T09:40:50;3.28;;;1.70;;
58768;SDS011;44536;47.474;19.056;2023-04-03T09:44:25;6.85;;;1.87;;
58768;SDS011;44536;47.474;19.056;2023-04-03T09:47:30;5.28;;;2.30;;
58768;SDS011;44536;47.474;19.056;2023-04-03T09:50:36;4.35;;;2.05;;
58768;SDS011;44536;47.474;19.056;2023-04-03T09:53:43;4.80;;;1.98;;
58768;SDS011;44536;47.474;19.056;2023-04-03T09:56:50;3.92;;;2.40;;
58768;SDS011;44536;47.474;19.056;2023-04-03T09:59:59;5.20;;;2.00;;
58768;SDS011;44536;47.474;19.056;2023-04-03T10:03:08;4.57;;;2.05;;
58768;SDS011;44536;47.474;19.056;2023-04-03T10:06:29;3.92;;;1.60;;
58768;SDS011;44536;47.474;19.056;2023-04-03T10:09:33;3.22;;;1.25;;
58768;SDS011;44536;47.474;19.056;2023-04-03T10:12:38;3.47;;;1.42;;
58768;SDS011;44536;47.474;19.056;2023-04-03T10:15:44;3.65;;;1.55;;
58768;SDS011;44536;47.474;19.056;2023-04-03T10:19:10;4.00;;;1.23;;
58768;SDS011;44536;47.474;19.056;2023-04-03T10:25:55;3.70;;;1.45;;
58768;SDS011;44536;47.474;19.056;2023-04-03T10:52:00;3.50;;;1.45;;
58768;SDS011;44536;47.474;19.056;2023-04-03T10:58:51;6.05;;;1.55;;
58768;SDS011;44536;47.474;19.056;2023-04-03T11:02:05;4.03;;;1.60;;
58768;SDS011;44536;47.474;19.056;2023-04-03T11:05:18;4.20;;;1.58;;
58768;SDS011;44536;47.474;19.056;2023-04-03T11:08:49;3.00;;;1.25;;
58768;SDS011;44536;47.474;19.056;2023-04-03T11:12:17;3.30;;;1.17;;
58768;SDS011;44536;47.474;19.056;2023-04-03T11:15:25;3.55;;;1.40;;
58768;SDS011;44536;47.474;19.056;2023-04-03T11:18:47;4.37;;;1.65;;
58768;SDS011;44536;47.474;19.056;2023-04-03T11:21:56;3.85;;;1.58;;
58768;SDS011;44536;47.474;19.056;2023-04-03T11:28:13;5.15;;;2.00;;
58768;SDS011;44536;47.474;19.056;2023-04-03T11:34:52;3.45;;;1.42;;
58768;SDS011;44536;47.474;19.056;2023-04-03T11:38:20;4.62;;;1.48;;
58768;SDS011;44536;47.474;19.056;2023-04-03T11:41:28;3.65;;;1.20;;
58768;SDS011;44536;47.474;19.056;2023-04-03T11:44:36;3.28;;;0.90;;
58768;SDS011;44536;47.474;19.056;2023-04-03T11:47:45;3.78;;;1.30;;
58768;SDS011;44536;47.474;19.056;2023-04-03T11:50:51;2.95;;;1.27;;
58768;SDS011;44536;47.474;19.056;2023-04-03T11:53:53;3.87;;;1.48;;
58768;SDS011;44536;47.474;19.056;2023-04-03T11:56:57;2.97;;;0.90;;
58768;SDS011;44536;47.474;19.056;2023-04-03T11:59:59;4.35;;;1.75;;
58768;SDS011;44536;47.474;19.056;2023-04-03T12:03:01;4.80;;;1.48;;
58768;SDS011;44536;47.474;19.056;2023-04-03T12:09:35;4.45;;;1.20;;
58768;SDS011;44536;47.474;19.056;2023-04-03T12:12:59;3.58;;;1.23;;
58768;SDS011;44536;47.474;19.056;2023-04-03T12:16:26;3.72;;;1.33;;
58768;SDS011;44536;47.474;19.056;2023-04-03T12:19:37;3.67;;;1.02;;
58768;SDS011;44536;47.474;19.056;2023-04-03T12:23:06;2.67;;;1.05;;
58768;SDS011;44536;47.474;19.056;2023-04-03T12:30:01;4.15;;;1.42;;
58768;SDS011;44536;47.474;19.056;2023-04-03T12:37:27;3.30;;;1.48;;
58768;SDS011;44536;47.474;19.056;2023-04-03T12:47:01;4.25;;;1.33;;
58768;SDS011;44536;47.474;19.056;2023-04-03T12:50:43;2.78;;;1.33;;
58768;SDS011;44536;47.474;19.056;2023-04-03T12:53:38;2.78;;;1.55;;
58768;SDS011;44536;47.474;19.056;2023-04-03T12:56:46;4.00;;;1.50;;
58768;SDS011;44536;47.474;19.056;2023-04-03T12:59:53;3.10;;;1.10;;
58768;SDS011;44536;47.474;19.056;2023-04-03T13:02:56;2.90;;;1.00;;
58768;SDS011;44536;47.474;19.056;2023-04-03T13:06:02;3.20;;;1.23;;
58768;SDS011;44536;47.474;19.056;2023-04-03T13:09:21;4.57;;;1.48;;
58768;SDS011;44536;47.474;19.056;2023-04-03T13:12:28;2.58;;;1.08;;
58768;SDS011;44536;47.474;19.056;2023-04-03T13:15:46;4.70;;;1.48;;
58768;SDS011;44536;47.474;19.056;2023-04-03T13:18:52;3.72;;;1.60;;
58768;SDS011;44536;47.474;19.056;2023-04-03T13:21:59;3.53;;;1.35;;
58768;SDS011;44536;47.474;19.056;2023-04-03T13:25:07;3.72;;;1.35;;
58768;SDS011;44536;47.474;19.056;2023-04-03T13:28:18;3.90;;;1.40;;
58768;SDS011;44536;47.474;19.056;2023-04-03T13:31:25;4.37;;;1.48;;
58768;SDS011;44536;47.474;19.056;2023-04-03T13:34:40;4.32;;;1.60;;
58768;SDS011;44536;47.474;19.056;2023-04-03T13:37:55;2.58;;;0.98;;
58768;SDS011;44536;47.474;19.056;2023-04-03T13:41:04;2.90;;;1.27;;
58768;SDS011;44536;47.474;19.056;2023-04-03T13:44:28;4.30;;;1.85;;
58768;SDS011;44536;47.474;19.056;2023-04-03T13:47:38;2.50;;;1.05;;
58768;SDS011;44536;47.474;19.056;2023-04-03T13:53:57;4.80;;;1.50;;
58768;SDS011;44536;47.474;19.056;2023-04-03T13:57:02;3.25;;;1.27;;
58768;SDS011;44536;47.474;19.056;2023-04-03T14:03:42;3.90;;;1.40;;
58768;SDS011;44536;47.474;19.056;2023-04-03T14:06:47;3.87;;;1.20;;
58768;SDS011;44536;47.474;19.056;2023-04-03T14:09:50;4.32;;;1.23;;
58768;SDS011;44536;47.474;19.056;2023-04-03T14:12:53;4.00;;;1.55;;
58768;SDS011;44536;47.474;19.056;2023-04-03T14:15:55;3.67;;;1.73;;
58768;SDS011;44536;47.474;19.056;2023-04-03T14:19:06;4.28;;;1.60;;
58768;SDS011;44536;47.474;19.056;2023-04-03T14:22:19;3.28;;;1.40;;
58768;SDS011;44536;47.474;19.056;2023-04-03T14:25:25;3.10;;;1.73;;
58768;SDS011;44536;47.474;19.056;2023-04-03T14:28:28;2.92;;;1.33;;
58768;SDS011;44536;47.474;19.056;2023-04-03T14:31:31;2.70;;;1.27;;
58768;SDS011;44536;47.474;19.056;2023-04-03T14:34:34;2.53;;;1.10;;
58768;SDS011;44536;47.474;19.056;2023-04-03T14:37:36;3.40;;;1.50;;
58768;SDS011;44536;47.474;19.056;2023-04-03T14:40:39;3.80;;;1.62;;
58768;SDS011;44536;47.474;19.056;2023-04-03T14:43:41;2.95;;;1.37;;
58768;SDS011;44536;47.474;19.056;2023-04-03T14:46:45;4.10;;;1.58;;
58768;SDS011;44536;47.474;19.056;2023-04-03T14:49:59;3.53;;;1.57;;
58768;SDS011;44536;47.474;19.056;2023-04-03T14:53:03;3.72;;;1.33;;
58768;SDS011;44536;47.474;19.056;2023-04-03T14:56:14;4.57;;;1.37;;
58768;SDS011;44536;47.474;19.056;2023-04-03T15:02:30;4.28;;;1.67;;
58768;SDS011;44536;47.474;19.056;2023-04-03T15:05:36;3.53;;;2.00;;
58768;SDS011;44536;47.474;19.056;2023-04-03T15:11:43;4.32;;;1.27;;
58768;SDS011;44536;47.474;19.056;2023-04-03T15:27:34;4.15;;;1.77;;
58768;SDS011;44536;47.474;19.056;2023-04-03T15:30:37;7.32;;;2.72;;
58768;SDS011;44536;47.474;19.056;2023-04-03T15:33:42;3.42;;;1.50;;
58768;SDS011;44536;47.474;19.056;2023-04-03T15:36:44;5.20;;;2.40;;
58768;SDS011;44536;47.474;19.056;2023-04-03T15:39:47;4.55;;;1.90;;
58768;SDS011;44536;47.474;19.056;2023-04-03T15:42:49;6.90;;;1.80;;
58768;SDS011;44536;47.474;19.056;2023-04-03T15:45:56;4.60;;;1.95;;
58768;SDS011;44536;47.474;19.056;2023-04-03T15:49:01;5.00;;;2.33;;
58768;SDS011;44536;47.474;19.056;2023-04-03T15:52:03;3.65;;;1.80;;
58768;SDS011;44536;47.474;19.056;2023-04-03T15:55:06;5.17;;;1.97;;
58768;SDS011;44536;47.474;19.056;2023-04-03T15:58:08;5.18;;;2.05;;
58768;SDS011;44536;47.474;19.056;2023-04-03T16:01:11;4.47;;;2.50;;
58768;SDS011;44536;47.474;19.056;2023-04-03T16:04:14;4.83;;;2.63;;
58768;SDS011;44536;47.474;19.056;2023-04-03T16:07:18;3.30;;;1.75;;
58768;SDS011;44536;47.474;19.056;2023-04-03T16:10:21;4.37;;;1.75;;
58768;SDS011;44536;47.474;19.056;2023-04-03T16:13:24;4.18;;;1.85;;
58768;SDS011;44536;47.474;19.056;2023-04-03T16:16:27;4.03;;;1.37;;
58768;SDS011;44536;47.474;19.056;2023-04-03T16:19:29;4.82;;;2.33;;
58768;SDS011;44536;47.474;19.056;2023-04-03T16:22:32;5.90;;;2.13;;
58768;SDS011;44536;47.474;19.056;2023-04-03T16:25:34;5.30;;;2.15;;
58768;SDS011;44536;47.474;19.056;2023-04-03T16:28:37;6.93;;;3.03;;
58768;SDS011;44536;47.474;19.056;2023-04-03T16:31:40;5.00;;;2.17;;
58768;SDS011;44536;47.474;19.056;2023-04-03T16:34:42;5.43;;;2.03;;
58768;SDS011;44536;47.474;19.056;2023-04-03T16:40:48;3.53;;;1.52;;
58768;SDS011;44536;47.474;19.056;2023-04-03T16:43:51;4.78;;;1.92;;
58768;SDS011;44536;47.474;19.056;2023-04-03T16:46:54;6.82;;;2.22;;
58768;SDS011;44536;47.474;19.056;2023-04-03T16:49:56;5.22;;;2.15;;
58768;SDS011;44536;47.474;19.056;2023-04-03T16:52:59;3.77;;;1.73;;
58768;SDS011;44536;47.474;19.056;2023-04-03T16:56:01;7.93;;;2.37;;
58768;SDS011;44536;47.474;19.056;2023-04-03T16:59:04;4.03;;;1.73;;
58768;SDS011;44536;47.474;19.056;2023-04-03T17:02:07;4.70;;;2.13;;
58768;SDS011;44536;47.474;19.056;2023-04-03T17:05:10;2.92;;;1.05;;
58768;SDS011;44536;47.474;19.056;2023-04-03T17:08:12;3.70;;;1.40;;
58768;SDS011;44536;47.474;19.056;2023-04-03T17:11:16;4.35;;;1.75;;
58768;SDS011;44536;47.474;19.056;2023-04-03T17:14:24;3.97;;;1.73;;
58768;SDS011;44536;47.474;19.056;2023-04-03T17:17:27;4.90;;;1.90;;
58768;SDS011;44536;47.474;19.056;2023-04-03T17:20:30;3.97;;;1.77;;
58768;SDS011;44536;47.474;19.056;2023-04-03T17:23:32;5.22;;;1.33;;
58768;SDS011;44536;47.474;19.056;2023-04-03T17:26:36;5.97;;;2.70;;
58768;SDS011;44536;47.474;19.056;2023-04-03T17:29:40;5.72;;;2.30;;
58768;SDS011;44536;47.474;19.056;2023-04-03T17:32:42;5.65;;;2.33;;
58768;SDS011;44536;47.474;19.056;2023-04-03T17:35:45;3.90;;;1.50;;
58768;SDS011;44536;47.474;19.056;2023-04-03T17:38:49;5.20;;;2.30;;
58768;SDS011;44536;47.474;19.056;2023-04-03T17:41:52;6.20;;;2.60;;
58768;SDS011;44536;47.474;19.056;2023-04-03T17:44:56;4.50;;;2.03;;
58768;SDS011;44536;47.474;19.056;2023-04-03T17:47:58;4.75;;;2.05;;
58768;SDS011;44536;47.474;19.056;2023-04-03T17:51:06;5.12;;;1.80;;
58768;SDS011;44536;47.474;19.056;2023-04-03T17:54:11;2.90;;;1.80;;
58768;SDS011;44536;47.474;19.056;2023-04-03T17:57:13;4.62;;;1.80;;
58768;SDS011;44536;47.474;19.056;2023-04-03T18:00:16;4.97;;;1.95;;
58768;SDS011;44536;47.474;19.056;2023-04-03T18:03:19;5.47;;;1.77;;
58768;SDS011;44536;47.474;19.056;2023-04-03T18:06:23;3.10;;;1.70;;
58768;SDS011;44536;47.474;19.056;2023-04-03T18:09:32;4.87;;;1.98;;
58768;SDS011;44536;47.474;19.056;2023-04-03T18:12:34;4.95;;;1.90;;
58768;SDS011;44536;47.474;19.056;2023-04-03T18:15:38;4.25;;;2.15;;
58768;SDS011;44536;47.474;19.056;2023-04-03T18:18:46;5.18;;;2.60;;
58768;SDS011;44536;47.474;19.056;2023-04-03T18:21:55;4.78;;;1.70;;
58768;SDS011;44536;47.474;19.056;2023-04-03T18:25:01;3.92;;;2.33;;
58768;SDS011;44536;47.474;19.056;2023-04-03T18:28:04;5.47;;;2.03;;
58768;SDS011;44536;47.474;19.056;2023-04-03T18:31:07;5.93;;;2.42;;
58768;SDS011;44536;47.474;19.056;2023-04-03T18:34:14;5.95;;;2.50;;
58768;SDS011;44536;47.474;19.056;2023-04-03T18:37:16;4.90;;;2.20;;
58768;SDS011;44536;47.474;19.056;2023-04-03T18:40:20;4.55;;;2.35;;
58768;SDS011;44536;47.474;19.056;2023-04-03T18:43:23;4.65;;;2.08;;
58768;SDS011;44536;47.474;19.056;2023-04-03T18:46:27;4.35;;;1.67;;
58768;SDS011;44536;47.474;19.056;2023-04-03T18:49:31;4.15;;;2.00;;
58768;SDS011;44536;47.474;19.056;2023-04-03T18:52:35;4.87;;;2.28;;
58768;SDS011;44536;47.474;19.056;2023-04-03T18:55:37;5.57;;;1.98;;
58768;SDS011;44536;47.474;19.056;2023-04-03T18:58:40;4.30;;;1.85;;
58768;SDS011;44536;47.474;19.056;2023-04-03T19:01:42;4.62;;;2.00;;
58768;SDS011;44536;47.474;19.056;2023-04-03T19:04:45;5.28;;;2.12;;
58768;SDS011;44536;47.474;19.056;2023-04-03T19:07:48;4.12;;;1.85;;
58768;SDS011;44536;47.474;19.056;2023-04-03T19:10:51;4.32;;;1.90;;
58768;SDS011;44536;47.474;19.056;2023-04-03T19:13:54;6.78;;;2.30;;
58768;SDS011;44536;47.474;19.056;2023-04-03T19:17:16;4.72;;;1.95;;
58768;SDS011;44536;47.474;19.056;2023-04-03T19:20:18;6.28;;;2.55;;
58768;SDS011;44536;47.474;19.056;2023-04-03T19:23:21;6.00;;;2.00;;
58768;SDS011;44536;47.474;19.056;2023-04-03T19:26:25;4.35;;;2.17;;
58768;SDS011;44536;47.474;19.056;2023-04-03T19:29:29;5.65;;;2.30;;
58768;SDS011;44536;47.474;19.056;2023-04-03T19:32:32;5.00;;;2.17;;
58768;SDS011;44536;47.474;19.056;2023-04-03T19:35:34;5.55;;;2.10;;
58768;SDS011;44536;47.474;19.056;2023-04-03T19:38:41;6.40;;;2.80;;
58768;SDS011;44536;47.474;19.056;2023-04-03T19:41:44;5.12;;;2.50;;
58768;SDS011;44536;47.474;19.056;2023-04-03T19:44:47;6.30;;;2.08;;
58768;SDS011;44536;47.474;19.056;2023-04-03T19:47:50;5.40;;;2.58;;
58768;SDS011;44536;47.474;19.056;2023-04-03T19:50:53;5.85;;;1.70;;
58768;SDS011;44536;47.474;19.056;2023-04-03T19:53:56;4.78;;;2.22;;
58768;SDS011;44536;47.474;19.056;2023-04-03T19:56:58;4.25;;;1.80;;
58768;SDS011;44536;47.474;19.056;2023-04-03T20:00:01;6.57;;;2.90;;
58768;SDS011;44536;47.474;19.056;2023-04-03T20:03:11;5.93;;;1.98;;
58768;SDS011;44536;47.474;19.056;2023-04-03T20:06:14;5.90;;;2.20;;
58768;SDS011;44536;47.474;19.056;2023-04-03T20:09:17;4.45;;;1.87;;
58768;SDS011;44536;47.474;19.056;2023-04-03T20:12:22;6.55;;;2.85;;